sensor_id;sensor_type;location;lat;lon;timestamp;P1;durP1;ratioP1;P2;durP2;ratioP2
60344;SDS011;46188;52.324;8.032;2022-12-20T00:01:48;6.07;;;4.07;;
60344;SDS011;46188;52.324;8.032;2022-12-20T00:04:13;7.18;;;4.07;;
60344;SDS011;46188;52.324;8.032;2022-12-20T00:06:39;7.07;;;4.05;;
60344;SDS011;46188;52.324;8.032;2022-12-20T00:09:06;7.40;;;4.50;;
60344;SDS011;46188;52.324;8.032;2022-12-20T00:11:32;5.20;;;3.83;;
60344;SDS011;46188;52.324;8.032;2022-12-20T00:13:59;8.43;;;4.75;;
60344;SDS011;46188;52.324;8.032;2022-12-20T00:16:26;6.15;;;4.30;;
60344;SDS011;46188;52.324;8.032;2022-12-20T00:18:53;6.05;;;4.35;;
60344;SDS011;46188;52.324;8.032;2022-12-20T00:21:20;6.95;;;4.53;;
60344;SDS011;46188;52.324;8.032;2022-12-20T00:23:46;5.80;;;4.50;;
60344;SDS011;46188;52.324;8.032;2022-12-20T00:26:13;6.40;;;4.22;;
60344;SDS011;46188;52.324;8.032;2022-12-20T00:28:41;7.72;;;4.35;;
60344;SDS011;46188;52.324;8.032;2022-12-20T00:31:07;7.22;;;4.60;;
60344;SDS011;46188;52.324;8.032;2022-12-20T00:33:34;7.30;;;4.05;;
60344;SDS011;46188;52.324;8.032;2022-12-20T00:36:01;8.35;;;4.00;;
60344;SDS011;46188;52.324;8.032;2022-12-20T00:38:28;8.63;;;4.55;;
60344;SDS011;46188;52.324;8.032;2022-12-20T00:43:26;8.48;;;4.78;;
60344;SDS011;46188;52.324;8.032;2022-12-20T00:45:52;8.05;;;4.60;;
60344;SDS011;46188;52.324;8.032;2022-12-20T00:48:18;10.55;;;4.30;;
60344;SDS011;46188;52.324;8.032;2022-12-20T00:50:43;6.95;;;4.25;;
60344;SDS011;46188;52.324;8.032;2022-12-20T00:53:08;6.40;;;4.55;;
60344;SDS011;46188;52.324;8.032;2022-12-20T00:55:34;7.07;;;4.40;;
60344;SDS011;46188;52.324;8.032;2022-12-20T00:58:04;6.63;;;3.88;;
60344;SDS011;46188;52.324;8.032;2022-12-20T01:00:30;7.45;;;4.43;;
60344;SDS011;46188;52.324;8.032;2022-12-20T01:02:55;4.72;;;3.65;;
60344;SDS011;46188;52.324;8.032;2022-12-20T01:05:21;5.50;;;4.30;;
60344;SDS011;46188;52.324;8.032;2022-12-20T01:07:47;9.63;;;5.28;;
60344;SDS011;46188;52.324;8.032;2022-12-20T01:10:12;6.15;;;4.30;;
60344;SDS011;46188;52.324;8.032;2022-12-20T01:12:38;6.85;;;4.55;;
60344;SDS011;46188;52.324;8.032;2022-12-20T01:15:03;5.78;;;3.90;;
60344;SDS011;46188;52.324;8.032;2022-12-20T01:17:29;6.90;;;3.75;;
60344;SDS011;46188;52.324;8.032;2022-12-20T01:19:54;6.55;;;4.28;;
60344;SDS011;46188;52.324;8.032;2022-12-20T01:22:20;4.85;;;3.38;;
60344;SDS011;46188;52.324;8.032;2022-12-20T01:24:45;6.80;;;4.20;;
60344;SDS011;46188;52.324;8.032;2022-12-20T01:27:10;5.85;;;3.88;;
60344;SDS011;46188;52.324;8.032;2022-12-20T01:29:36;7.18;;;3.75;;
60344;SDS011;46188;52.324;8.032;2022-12-20T01:32:01;6.40;;;3.80;;
60344;SDS011;46188;52.324;8.032;2022-12-20T01:34:27;6.32;;;4.15;;
60344;SDS011;46188;52.324;8.032;2022-12-20T01:36:52;5.15;;;3.50;;
60344;SDS011;46188;52.324;8.032;2022-12-20T01:39:18;6.45;;;3.75;;
60344;SDS011;46188;52.324;8.032;2022-12-20T01:41:44;6.63;;;4.10;;
60344;SDS011;46188;52.324;8.032;2022-12-20T01:46:41;6.07;;;4.13;;
60344;SDS011;46188;52.324;8.032;2022-12-20T01:49:09;5.72;;;3.20;;
60344;SDS011;46188;52.324;8.032;2022-12-20T01:51:46;4.90;;;3.50;;
60344;SDS011;46188;52.324;8.032;2022-12-20T01:56:52;7.38;;;3.38;;
60344;SDS011;46188;52.324;8.032;2022-12-20T01:59:24;6.03;;;3.15;;
60344;SDS011;46188;52.324;8.032;2022-12-20T02:01:51;6.20;;;3.75;;
60344;SDS011;46188;52.324;8.032;2022-12-20T02:04:16;5.72;;;3.63;;
60344;SDS011;46188;52.324;8.032;2022-12-20T02:06:42;6.00;;;2.97;;
60344;SDS011;46188;52.324;8.032;2022-12-20T02:09:07;6.53;;;3.72;;
60344;SDS011;46188;52.324;8.032;2022-12-20T02:12:37;8.85;;;3.20;;
60344;SDS011;46188;52.324;8.032;2022-12-20T02:14:54;4.88;;;3.20;;
60344;SDS011;46188;52.324;8.032;2022-12-20T02:31:26;4.07;;;3.30;;
60344;SDS011;46188;52.324;8.032;2022-12-20T02:33:58;3.63;;;2.67;;
60344;SDS011;46188;52.324;8.032;2022-12-20T02:36:27;5.68;;;3.42;;
60344;SDS011;46188;52.324;8.032;2022-12-20T02:38:52;4.43;;;2.83;;
60344;SDS011;46188;52.324;8.032;2022-12-20T02:41:35;5.65;;;2.83;;
60344;SDS011;46188;52.324;8.032;2022-12-20T02:46:52;5.97;;;2.85;;
60344;SDS011;46188;52.324;8.032;2022-12-20T02:49:22;5.85;;;3.15;;
60344;SDS011;46188;52.324;8.032;2022-12-20T02:51:53;5.55;;;2.80;;
60344;SDS011;46188;52.324;8.032;2022-12-20T02:54:20;4.38;;;2.90;;
60344;SDS011;46188;52.324;8.032;2022-12-20T02:56:50;4.18;;;2.70;;
60344;SDS011;46188;52.324;8.032;2022-12-20T02:59:26;3.83;;;2.80;;
60344;SDS011;46188;52.324;8.032;2022-12-20T03:01:56;5.78;;;2.55;;
60344;SDS011;46188;52.324;8.032;2022-12-20T03:04:24;3.72;;;2.80;;
60344;SDS011;46188;52.324;8.032;2022-12-20T03:06:59;4.25;;;3.03;;
60344;SDS011;46188;52.324;8.032;2022-12-20T03:09:34;6.97;;;2.85;;
60344;SDS011;46188;52.324;8.032;2022-12-20T03:12:02;4.10;;;2.60;;
60344;SDS011;46188;52.324;8.032;2022-12-20T03:14:28;3.92;;;2.50;;
60344;SDS011;46188;52.324;8.032;2022-12-20T03:16:54;4.13;;;2.47;;
60344;SDS011;46188;52.324;8.032;2022-12-20T03:19:20;4.07;;;2.53;;
60344;SDS011;46188;52.324;8.032;2022-12-20T03:21:45;4.55;;;2.40;;
60344;SDS011;46188;52.324;8.032;2022-12-20T03:24:11;3.20;;;2.33;;
60344;SDS011;46188;52.324;8.032;2022-12-20T03:26:38;4.18;;;2.55;;
60344;SDS011;46188;52.324;8.032;2022-12-20T03:29:04;4.65;;;2.45;;
60344;SDS011;46188;52.324;8.032;2022-12-20T03:31:30;4.57;;;2.10;;
60344;SDS011;46188;52.324;8.032;2022-12-20T03:33:56;3.85;;;2.40;;
60344;SDS011;46188;52.324;8.032;2022-12-20T03:36:22;2.85;;;2.05;;
60344;SDS011;46188;52.324;8.032;2022-12-20T03:38:51;3.03;;;2.47;;
60344;SDS011;46188;52.324;8.032;2022-12-20T03:41:18;3.55;;;2.33;;
60344;SDS011;46188;52.324;8.032;2022-12-20T03:43:46;4.82;;;2.40;;
60344;SDS011;46188;52.324;8.032;2022-12-20T03:46:12;4.80;;;2.80;;
60344;SDS011;46188;52.324;8.032;2022-12-20T03:48:37;4.43;;;2.33;;
60344;SDS011;46188;52.324;8.032;2022-12-20T03:51:03;4.65;;;3.28;;
60344;SDS011;46188;52.324;8.032;2022-12-20T03:53:28;5.40;;;2.30;;
60344;SDS011;46188;52.324;8.032;2022-12-20T03:55:54;3.63;;;2.50;;
60344;SDS011;46188;52.324;8.032;2022-12-20T03:58:20;4.72;;;2.50;;
60344;SDS011;46188;52.324;8.032;2022-12-20T04:00:45;3.17;;;2.70;;
60344;SDS011;46188;52.324;8.032;2022-12-20T04:03:11;4.93;;;2.85;;
60344;SDS011;46188;52.324;8.032;2022-12-20T04:05:37;4.80;;;2.40;;
60344;SDS011;46188;52.324;8.032;2022-12-20T04:08:03;4.63;;;2.35;;
60344;SDS011;46188;52.324;8.032;2022-12-20T04:10:29;4.28;;;1.75;;
60344;SDS011;46188;52.324;8.032;2022-12-20T04:12:54;4.50;;;2.50;;
60344;SDS011;46188;52.324;8.032;2022-12-20T04:15:20;4.35;;;2.50;;
60344;SDS011;46188;52.324;8.032;2022-12-20T04:17:45;4.10;;;2.58;;
60344;SDS011;46188;52.324;8.032;2022-12-20T04:20:14;3.95;;;2.35;;
60344;SDS011;46188;52.324;8.032;2022-12-20T04:22:47;4.50;;;1.98;;
60344;SDS011;46188;52.324;8.032;2022-12-20T04:25:14;4.53;;;2.67;;
60344;SDS011;46188;52.324;8.032;2022-12-20T04:27:41;4.60;;;2.42;;
60344;SDS011;46188;52.324;8.032;2022-12-20T04:30:07;4.55;;;2.50;;
60344;SDS011;46188;52.324;8.032;2022-12-20T04:32:33;3.50;;;2.40;;
60344;SDS011;46188;52.324;8.032;2022-12-20T04:34:59;4.03;;;2.67;;
60344;SDS011;46188;52.324;8.032;2022-12-20T04:37:26;3.33;;;2.22;;
60344;SDS011;46188;52.324;8.032;2022-12-20T04:39:51;3.92;;;2.60;;
60344;SDS011;46188;52.324;8.032;2022-12-20T04:42:17;6.20;;;2.88;;
60344;SDS011;46188;52.324;8.032;2022-12-20T04:44:42;3.50;;;2.53;;
60344;SDS011;46188;52.324;8.032;2022-12-20T04:47:08;4.72;;;2.60;;
60344;SDS011;46188;52.324;8.032;2022-12-20T04:49:34;7.93;;;2.67;;
60344;SDS011;46188;52.324;8.032;2022-12-20T04:52:00;3.50;;;2.70;;
60344;SDS011;46188;52.324;8.032;2022-12-20T04:54:45;4.47;;;3.00;;
60344;SDS011;46188;52.324;8.032;2022-12-20T04:57:11;5.63;;;2.95;;
60344;SDS011;46188;52.324;8.032;2022-12-20T04:59:37;4.03;;;3.10;;
60344;SDS011;46188;52.324;8.032;2022-12-20T05:02:03;3.53;;;2.50;;
60344;SDS011;46188;52.324;8.032;2022-12-20T05:04:28;7.35;;;2.85;;
60344;SDS011;46188;52.324;8.032;2022-12-20T05:06:54;4.90;;;3.10;;
60344;SDS011;46188;52.324;8.032;2022-12-20T05:09:22;6.28;;;3.00;;
60344;SDS011;46188;52.324;8.032;2022-12-20T05:11:48;4.88;;;2.92;;
60344;SDS011;46188;52.324;8.032;2022-12-20T05:14:14;5.90;;;2.92;;
60344;SDS011;46188;52.324;8.032;2022-12-20T05:16:39;3.70;;;2.80;;
60344;SDS011;46188;52.324;8.032;2022-12-20T05:19:05;4.68;;;3.10;;
60344;SDS011;46188;52.324;8.032;2022-12-20T05:21:30;4.78;;;2.53;;
60344;SDS011;46188;52.324;8.032;2022-12-20T05:24:14;4.05;;;2.67;;
60344;SDS011;46188;52.324;8.032;2022-12-20T05:26:58;7.07;;;2.83;;
60344;SDS011;46188;52.324;8.032;2022-12-20T05:29:24;4.22;;;2.72;;
60344;SDS011;46188;52.324;8.032;2022-12-20T05:31:50;5.03;;;3.20;;
60344;SDS011;46188;52.324;8.032;2022-12-20T05:34:16;6.47;;;2.97;;
60344;SDS011;46188;52.324;8.032;2022-12-20T05:36:41;4.00;;;2.58;;
60344;SDS011;46188;52.324;8.032;2022-12-20T05:39:07;5.53;;;2.78;;
60344;SDS011;46188;52.324;8.032;2022-12-20T05:41:33;6.22;;;3.42;;
60344;SDS011;46188;52.324;8.032;2022-12-20T05:43:58;4.22;;;3.22;;
60344;SDS011;46188;52.324;8.032;2022-12-20T05:46:24;5.65;;;2.92;;
60344;SDS011;46188;52.324;8.032;2022-12-20T05:48:49;4.93;;;2.85;;
60344;SDS011;46188;52.324;8.032;2022-12-20T05:51:15;8.43;;;3.17;;
60344;SDS011;46188;52.324;8.032;2022-12-20T05:53:40;6.30;;;3.72;;
60344;SDS011;46188;52.324;8.032;2022-12-20T05:56:05;4.32;;;2.85;;
60344;SDS011;46188;52.324;8.032;2022-12-20T05:58:31;5.28;;;3.30;;
60344;SDS011;46188;52.324;8.032;2022-12-20T06:01:04;6.05;;;3.20;;
60344;SDS011;46188;52.324;8.032;2022-12-20T06:03:31;5.22;;;3.40;;
60344;SDS011;46188;52.324;8.032;2022-12-20T06:05:56;5.57;;;3.10;;
60344;SDS011;46188;52.324;8.032;2022-12-20T06:08:22;7.03;;;2.97;;
60344;SDS011;46188;52.324;8.032;2022-12-20T06:10:48;5.05;;;2.97;;
60344;SDS011;46188;52.324;8.032;2022-12-20T06:13:14;5.90;;;2.88;;
60344;SDS011;46188;52.324;8.032;2022-12-20T06:15:40;7.03;;;2.90;;
60344;SDS011;46188;52.324;8.032;2022-12-20T06:18:09;4.78;;;2.97;;
60344;SDS011;46188;52.324;8.032;2022-12-20T06:20:35;4.75;;;3.30;;
60344;SDS011;46188;52.324;8.032;2022-12-20T06:23:02;4.38;;;3.05;;
60344;SDS011;46188;52.324;8.032;2022-12-20T06:25:28;5.57;;;2.85;;
60344;SDS011;46188;52.324;8.032;2022-12-20T06:27:54;8.38;;;3.03;;
60344;SDS011;46188;52.324;8.032;2022-12-20T06:30:20;4.28;;;3.00;;
60344;SDS011;46188;52.324;8.032;2022-12-20T06:32:46;6.68;;;3.72;;
60344;SDS011;46188;52.324;8.032;2022-12-20T06:35:11;3.72;;;2.60;;
60344;SDS011;46188;52.324;8.032;2022-12-20T06:37:38;4.40;;;2.90;;
60344;SDS011;46188;52.324;8.032;2022-12-20T06:40:09;4.43;;;3.40;;
60344;SDS011;46188;52.324;8.032;2022-12-20T06:42:36;5.70;;;3.00;;
60344;SDS011;46188;52.324;8.032;2022-12-20T06:45:02;5.22;;;2.67;;
60344;SDS011;46188;52.324;8.032;2022-12-20T06:47:29;4.68;;;3.17;;
60344;SDS011;46188;52.324;8.032;2022-12-20T06:49:54;5.60;;;3.13;;
60344;SDS011;46188;52.324;8.032;2022-12-20T06:52:20;5.20;;;3.40;;
60344;SDS011;46188;52.324;8.032;2022-12-20T06:54:45;7.20;;;3.40;;
60344;SDS011;46188;52.324;8.032;2022-12-20T06:57:11;5.05;;;3.22;;
60344;SDS011;46188;52.324;8.032;2022-12-20T06:59:36;6.40;;;3.72;;
60344;SDS011;46188;52.324;8.032;2022-12-20T07:02:02;5.00;;;3.22;;
60344;SDS011;46188;52.324;8.032;2022-12-20T07:04:28;7.97;;;3.25;;
60344;SDS011;46188;52.324;8.032;2022-12-20T07:06:53;4.38;;;3.15;;
60344;SDS011;46188;52.324;8.032;2022-12-20T07:09:19;5.00;;;3.30;;
60344;SDS011;46188;52.324;8.032;2022-12-20T07:11:44;4.45;;;3.08;;
60344;SDS011;46188;52.324;8.032;2022-12-20T07:14:10;5.50;;;3.10;;
60344;SDS011;46188;52.324;8.032;2022-12-20T07:16:36;4.18;;;3.13;;
60344;SDS011;46188;52.324;8.032;2022-12-20T07:19:01;4.90;;;2.72;;
60344;SDS011;46188;52.324;8.032;2022-12-20T07:21:27;5.75;;;3.42;;
60344;SDS011;46188;52.324;8.032;2022-12-20T07:23:53;6.53;;;3.25;;
60344;SDS011;46188;52.324;8.032;2022-12-20T07:26:20;6.22;;;3.30;;
60344;SDS011;46188;52.324;8.032;2022-12-20T07:28:45;8.50;;;3.15;;
60344;SDS011;46188;52.324;8.032;2022-12-20T07:31:11;8.40;;;3.10;;
60344;SDS011;46188;52.324;8.032;2022-12-20T07:33:36;4.90;;;3.00;;
60344;SDS011;46188;52.324;8.032;2022-12-20T07:36:06;6.03;;;3.67;;
60344;SDS011;46188;52.324;8.032;2022-12-20T07:38:34;5.90;;;3.30;;
60344;SDS011;46188;52.324;8.032;2022-12-20T07:41:00;4.88;;;3.40;;
60344;SDS011;46188;52.324;8.032;2022-12-20T07:43:32;6.20;;;4.25;;
60344;SDS011;46188;52.324;8.032;2022-12-20T07:45:57;6.53;;;3.97;;
60344;SDS011;46188;52.324;8.032;2022-12-20T07:48:23;6.97;;;4.50;;
60344;SDS011;46188;52.324;8.032;2022-12-20T07:50:52;7.82;;;4.35;;
60344;SDS011;46188;52.324;8.032;2022-12-20T07:53:22;6.90;;;4.50;;
60344;SDS011;46188;52.324;8.032;2022-12-20T07:55:50;5.32;;;3.60;;
60344;SDS011;46188;52.324;8.032;2022-12-20T07:58:15;7.00;;;4.53;;
60344;SDS011;46188;52.324;8.032;2022-12-20T08:00:43;5.72;;;3.80;;
60344;SDS011;46188;52.324;8.032;2022-12-20T08:03:11;9.95;;;3.63;;
60344;SDS011;46188;52.324;8.032;2022-12-20T08:05:50;5.85;;;4.45;;
60344;SDS011;46188;52.324;8.032;2022-12-20T08:08:19;5.35;;;4.32;;
60344;SDS011;46188;52.324;8.032;2022-12-20T08:10:46;6.95;;;3.95;;
60344;SDS011;46188;52.324;8.032;2022-12-20T08:13:12;6.50;;;4.35;;
60344;SDS011;46188;52.324;8.032;2022-12-20T08:15:37;7.25;;;3.90;;
60344;SDS011;46188;52.324;8.032;2022-12-20T08:18:03;7.03;;;4.30;;
60344;SDS011;46188;52.324;8.032;2022-12-20T08:20:30;7.10;;;4.03;;
60344;SDS011;46188;52.324;8.032;2022-12-20T08:22:56;6.50;;;4.35;;
60344;SDS011;46188;52.324;8.032;2022-12-20T08:25:22;6.28;;;3.60;;
60344;SDS011;46188;52.324;8.032;2022-12-20T08:27:47;5.70;;;3.33;;
60344;SDS011;46188;52.324;8.032;2022-12-20T08:30:13;4.60;;;3.65;;
60344;SDS011;46188;52.324;8.032;2022-12-20T08:32:39;6.60;;;3.08;;
60344;SDS011;46188;52.324;8.032;2022-12-20T08:35:05;5.38;;;3.58;;
60344;SDS011;46188;52.324;8.032;2022-12-20T08:37:31;3.88;;;2.80;;
60344;SDS011;46188;52.324;8.032;2022-12-20T08:39:57;5.78;;;3.03;;
60344;SDS011;46188;52.324;8.032;2022-12-20T08:42:22;4.50;;;3.10;;
60344;SDS011;46188;52.324;8.032;2022-12-20T08:44:48;4.28;;;2.88;;
60344;SDS011;46188;52.324;8.032;2022-12-20T08:47:13;4.68;;;3.10;;
60344;SDS011;46188;52.324;8.032;2022-12-20T08:49:39;4.75;;;2.88;;
60344;SDS011;46188;52.324;8.032;2022-12-20T08:52:04;4.45;;;3.08;;
60344;SDS011;46188;52.324;8.032;2022-12-20T08:54:30;4.00;;;3.20;;
60344;SDS011;46188;52.324;8.032;2022-12-20T08:56:55;5.45;;;3.90;;
60344;SDS011;46188;52.324;8.032;2022-12-20T08:59:21;7.00;;;3.75;;
60344;SDS011;46188;52.324;8.032;2022-12-20T09:01:46;4.47;;;3.50;;
60344;SDS011;46188;52.324;8.032;2022-12-20T09:04:12;4.90;;;3.80;;
60344;SDS011;46188;52.324;8.032;2022-12-20T09:06:38;8.52;;;4.28;;
60344;SDS011;46188;52.324;8.032;2022-12-20T09:09:04;5.75;;;3.42;;
60344;SDS011;46188;52.324;8.032;2022-12-20T09:11:31;7.07;;;3.47;;
60344;SDS011;46188;52.324;8.032;2022-12-20T09:13:57;5.53;;;3.28;;
60344;SDS011;46188;52.324;8.032;2022-12-20T09:16:25;6.32;;;3.95;;
60344;SDS011;46188;52.324;8.032;2022-12-20T09:18:53;5.82;;;3.40;;
60344;SDS011;46188;52.324;8.032;2022-12-20T09:21:20;5.75;;;3.40;;
60344;SDS011;46188;52.324;8.032;2022-12-20T09:23:48;4.57;;;3.10;;
60344;SDS011;46188;52.324;8.032;2022-12-20T09:26:15;7.15;;;3.45;;
60344;SDS011;46188;52.324;8.032;2022-12-20T09:28:42;4.70;;;3.45;;
60344;SDS011;46188;52.324;8.032;2022-12-20T09:31:12;5.95;;;3.33;;
60344;SDS011;46188;52.324;8.032;2022-12-20T09:33:39;5.47;;;3.10;;
60344;SDS011;46188;52.324;8.032;2022-12-20T09:36:06;6.60;;;2.90;;
60344;SDS011;46188;52.324;8.032;2022-12-20T09:38:36;5.57;;;3.03;;
60344;SDS011;46188;52.324;8.032;2022-12-20T09:41:02;5.20;;;3.10;;
60344;SDS011;46188;52.324;8.032;2022-12-20T09:43:31;6.53;;;2.55;;
60344;SDS011;46188;52.324;8.032;2022-12-20T09:45:58;4.47;;;2.40;;
60344;SDS011;46188;52.324;8.032;2022-12-20T09:48:36;4.63;;;2.50;;
60344;SDS011;46188;52.324;8.032;2022-12-20T10:01:38;5.05;;;2.70;;
60344;SDS011;46188;52.324;8.032;2022-12-20T10:04:22;4.80;;;2.60;;
60344;SDS011;46188;52.324;8.032;2022-12-20T10:07:52;4.35;;;3.05;;
60344;SDS011;46188;52.324;8.032;2022-12-20T10:15:21;3.45;;;2.50;;
60344;SDS011;46188;52.324;8.032;2022-12-20T10:26:32;6.85;;;2.78;;
60344;SDS011;46188;52.324;8.032;2022-12-20T10:28:57;8.00;;;2.50;;
60344;SDS011;46188;52.324;8.032;2022-12-20T10:31:23;8.10;;;2.65;;
60344;SDS011;46188;52.324;8.032;2022-12-20T10:33:49;5.70;;;2.47;;
60344;SDS011;46188;52.324;8.032;2022-12-20T10:44:26;3.75;;;2.50;;
60344;SDS011;46188;52.324;8.032;2022-12-20T10:46:55;6.57;;;2.80;;
60344;SDS011;46188;52.324;8.032;2022-12-20T10:57:00;4.78;;;2.08;;
60344;SDS011;46188;52.324;8.032;2022-12-20T10:59:29;4.13;;;2.22;;
60344;SDS011;46188;52.324;8.032;2022-12-20T11:01:58;6.43;;;2.45;;
60344;SDS011;46188;52.324;8.032;2022-12-20T11:04:34;6.07;;;2.50;;
60344;SDS011;46188;52.324;8.032;2022-12-20T11:07:03;5.85;;;2.75;;
60344;SDS011;46188;52.324;8.032;2022-12-20T11:09:55;3.75;;;2.13;;
60344;SDS011;46188;52.324;8.032;2022-12-20T11:12:25;7.22;;;3.22;;
60344;SDS011;46188;52.324;8.032;2022-12-20T11:15:06;7.50;;;2.38;;
60344;SDS011;46188;52.324;8.032;2022-12-20T11:17:40;6.72;;;2.30;;
60344;SDS011;46188;52.324;8.032;2022-12-20T11:34:09;3.50;;;2.13;;
60344;SDS011;46188;52.324;8.032;2022-12-20T11:42:28;3.50;;;2.47;;
60344;SDS011;46188;52.324;8.032;2022-12-20T11:53:37;4.47;;;2.17;;
60344;SDS011;46188;52.324;8.032;2022-12-20T11:56:14;5.40;;;2.33;;
60344;SDS011;46188;52.324;8.032;2022-12-20T12:01:27;4.63;;;2.47;;
60344;SDS011;46188;52.324;8.032;2022-12-20T12:04:03;7.60;;;2.40;;
60344;SDS011;46188;52.324;8.032;2022-12-20T12:06:39;3.88;;;2.30;;
60344;SDS011;46188;52.324;8.032;2022-12-20T12:11:46;5.38;;;2.58;;
60344;SDS011;46188;52.324;8.032;2022-12-20T12:14:21;3.38;;;2.03;;
60344;SDS011;46188;52.324;8.032;2022-12-20T12:17:06;5.28;;;2.70;;
60344;SDS011;46188;52.324;8.032;2022-12-20T12:19:36;5.20;;;2.40;;
60344;SDS011;46188;52.324;8.032;2022-12-20T12:22:10;4.15;;;2.40;;
60344;SDS011;46188;52.324;8.032;2022-12-20T12:24:42;4.75;;;2.40;;
60344;SDS011;46188;52.324;8.032;2022-12-20T12:27:19;4.50;;;2.28;;
60344;SDS011;46188;52.324;8.032;2022-12-20T12:29:48;4.25;;;2.20;;
60344;SDS011;46188;52.324;8.032;2022-12-20T12:32:28;6.80;;;2.80;;
60344;SDS011;46188;52.324;8.032;2022-12-20T12:35:13;7.47;;;2.10;;
60344;SDS011;46188;52.324;8.032;2022-12-20T12:46:13;4.60;;;2.13;;
60344;SDS011;46188;52.324;8.032;2022-12-20T12:48:45;4.20;;;2.50;;
60344;SDS011;46188;52.324;8.032;2022-12-20T12:51:52;6.82;;;2.67;;
60344;SDS011;46188;52.324;8.032;2022-12-20T12:57:14;5.30;;;3.13;;
60344;SDS011;46188;52.324;8.032;2022-12-20T13:10:01;4.50;;;2.80;;
60344;SDS011;46188;52.324;8.032;2022-12-20T13:14:58;4.93;;;3.30;;
60344;SDS011;46188;52.324;8.032;2022-12-20T13:19:52;4.57;;;2.97;;
60344;SDS011;46188;52.324;8.032;2022-12-20T13:22:20;5.50;;;3.47;;
60344;SDS011;46188;52.324;8.032;2022-12-20T13:25:03;5.32;;;3.15;;
60344;SDS011;46188;52.324;8.032;2022-12-20T13:28:38;5.78;;;3.20;;
60344;SDS011;46188;52.324;8.032;2022-12-20T13:30:40;7.85;;;3.30;;
60344;SDS011;46188;52.324;8.032;2022-12-20T13:33:22;7.25;;;3.30;;
60344;SDS011;46188;52.324;8.032;2022-12-20T13:35:56;4.32;;;2.72;;
60344;SDS011;46188;52.324;8.032;2022-12-20T13:43:48;3.65;;;2.88;;
60344;SDS011;46188;52.324;8.032;2022-12-20T13:46:24;7.15;;;3.70;;
60344;SDS011;46188;52.324;8.032;2022-12-20T13:49:02;5.25;;;3.38;;
60344;SDS011;46188;52.324;8.032;2022-12-20T13:51:32;5.50;;;3.20;;
60344;SDS011;46188;52.324;8.032;2022-12-20T13:58:53;5.07;;;4.15;;
60344;SDS011;46188;52.324;8.032;2022-12-20T14:01:27;6.45;;;3.80;;
60344;SDS011;46188;52.324;8.032;2022-12-20T14:03:53;6.75;;;4.22;;
60344;SDS011;46188;52.324;8.032;2022-12-20T14:06:19;8.75;;;3.45;;
60344;SDS011;46188;52.324;8.032;2022-12-20T14:08:48;6.28;;;3.97;;
60344;SDS011;46188;52.324;8.032;2022-12-20T14:11:19;5.15;;;3.50;;
60344;SDS011;46188;52.324;8.032;2022-12-20T14:16:21;6.13;;;3.45;;
60344;SDS011;46188;52.324;8.032;2022-12-20T14:18:49;4.32;;;3.05;;
60344;SDS011;46188;52.324;8.032;2022-12-20T14:21:21;5.55;;;3.15;;
60344;SDS011;46188;52.324;8.032;2022-12-20T14:23:57;7.07;;;3.15;;
60344;SDS011;46188;52.324;8.032;2022-12-20T14:26:29;5.07;;;2.80;;
60344;SDS011;46188;52.324;8.032;2022-12-20T14:28:58;4.43;;;3.40;;
60344;SDS011;46188;52.324;8.032;2022-12-20T14:36:50;5.25;;;2.83;;
60344;SDS011;46188;52.324;8.032;2022-12-20T14:41:45;5.57;;;2.60;;
60344;SDS011;46188;52.324;8.032;2022-12-20T14:46:36;4.57;;;2.30;;
60344;SDS011;46188;52.324;8.032;2022-12-20T14:49:14;7.22;;;2.63;;
60344;SDS011;46188;52.324;8.032;2022-12-20T14:51:46;4.70;;;2.55;;
60344;SDS011;46188;52.324;8.032;2022-12-20T14:54:16;6.78;;;2.95;;
60344;SDS011;46188;52.324;8.032;2022-12-20T14:56:47;6.80;;;2.70;;
60344;SDS011;46188;52.324;8.032;2022-12-20T14:59:17;5.68;;;2.97;;
60344;SDS011;46188;52.324;8.032;2022-12-20T15:01:50;6.97;;;3.03;;
60344;SDS011;46188;52.324;8.032;2022-12-20T15:04:30;4.90;;;2.83;;
60344;SDS011;46188;52.324;8.032;2022-12-20T15:06:58;5.00;;;2.60;;
60344;SDS011;46188;52.324;8.032;2022-12-20T15:09:25;4.82;;;2.83;;
60344;SDS011;46188;52.324;8.032;2022-12-20T15:11:51;6.65;;;3.10;;
60344;SDS011;46188;52.324;8.032;2022-12-20T15:16:51;5.88;;;2.85;;
60344;SDS011;46188;52.324;8.032;2022-12-20T15:19:17;4.93;;;3.50;;
60344;SDS011;46188;52.324;8.032;2022-12-20T15:21:42;5.30;;;3.20;;
60344;SDS011;46188;52.324;8.032;2022-12-20T15:24:17;5.28;;;3.13;;
60344;SDS011;46188;52.324;8.032;2022-12-20T15:26:47;7.18;;;3.67;;
60344;SDS011;46188;52.324;8.032;2022-12-20T15:29:14;5.72;;;3.58;;
60344;SDS011;46188;52.324;8.032;2022-12-20T15:31:50;5.68;;;3.42;;
60344;SDS011;46188;52.324;8.032;2022-12-20T15:34:28;8.60;;;3.75;;
60344;SDS011;46188;52.324;8.032;2022-12-20T15:36:57;4.68;;;3.33;;
60344;SDS011;46188;52.324;8.032;2022-12-20T15:39:24;7.63;;;4.35;;
60344;SDS011;46188;52.324;8.032;2022-12-20T15:41:51;6.32;;;4.35;;
60344;SDS011;46188;52.324;8.032;2022-12-20T15:44:21;4.95;;;3.90;;
60344;SDS011;46188;52.324;8.032;2022-12-20T15:46:49;9.13;;;4.53;;
60344;SDS011;46188;52.324;8.032;2022-12-20T15:49:15;7.90;;;4.90;;
60344;SDS011;46188;52.324;8.032;2022-12-20T15:51:46;7.18;;;5.32;;
60344;SDS011;46188;52.324;8.032;2022-12-20T15:54:35;9.57;;;5.40;;
60344;SDS011;46188;52.324;8.032;2022-12-20T15:57:04;9.60;;;5.82;;
60344;SDS011;46188;52.324;8.032;2022-12-20T15:59:33;10.23;;;6.00;;
60344;SDS011;46188;52.324;8.032;2022-12-20T16:01:59;8.57;;;6.65;;
60344;SDS011;46188;52.324;8.032;2022-12-20T16:04:25;8.95;;;6.95;;
60344;SDS011;46188;52.324;8.032;2022-12-20T16:06:52;11.68;;;7.63;;
60344;SDS011;46188;52.324;8.032;2022-12-20T16:09:18;10.20;;;8.35;;
60344;SDS011;46188;52.324;8.032;2022-12-20T16:11:45;11.23;;;7.85;;
60344;SDS011;46188;52.324;8.032;2022-12-20T16:14:14;14.30;;;9.50;;
60344;SDS011;46188;52.324;8.032;2022-12-20T16:16:42;12.20;;;9.10;;
60344;SDS011;46188;52.324;8.032;2022-12-20T16:19:08;10.57;;;8.63;;
60344;SDS011;46188;52.324;8.032;2022-12-20T16:21:34;11.05;;;8.82;;
60344;SDS011;46188;52.324;8.032;2022-12-20T16:24:08;11.50;;;10.25;;
60344;SDS011;46188;52.324;8.032;2022-12-20T16:26:36;12.93;;;9.85;;
60344;SDS011;46188;52.324;8.032;2022-12-20T16:29:02;13.35;;;10.27;;
60344;SDS011;46188;52.324;8.032;2022-12-20T16:31:28;14.85;;;10.93;;
60344;SDS011;46188;52.324;8.032;2022-12-20T16:33:56;16.08;;;10.60;;
60344;SDS011;46188;52.324;8.032;2022-12-20T16:36:23;14.05;;;9.93;;
60344;SDS011;46188;52.324;8.032;2022-12-20T16:38:49;13.20;;;11.10;;
60344;SDS011;46188;52.324;8.032;2022-12-20T16:41:16;16.77;;;12.27;;
60344;SDS011;46188;52.324;8.032;2022-12-20T16:43:44;17.52;;;11.02;;
60344;SDS011;46188;52.324;8.032;2022-12-20T16:46:11;17.05;;;11.07;;
60344;SDS011;46188;52.324;8.032;2022-12-20T16:48:38;15.60;;;10.55;;
60344;SDS011;46188;52.324;8.032;2022-12-20T16:51:10;14.30;;;10.68;;
60344;SDS011;46188;52.324;8.032;2022-12-20T16:53:41;16.55;;;11.93;;
60344;SDS011;46188;52.324;8.032;2022-12-20T16:56:07;17.38;;;11.93;;
60344;SDS011;46188;52.324;8.032;2022-12-20T16:58:34;16.42;;;11.75;;
60344;SDS011;46188;52.324;8.032;2022-12-20T17:01:00;13.50;;;10.82;;
60344;SDS011;46188;52.324;8.032;2022-12-20T17:03:25;15.27;;;10.48;;
60344;SDS011;46188;52.324;8.032;2022-12-20T17:05:51;14.45;;;10.70;;
60344;SDS011;46188;52.324;8.032;2022-12-20T17:08:16;14.38;;;10.75;;
60344;SDS011;46188;52.324;8.032;2022-12-20T17:10:42;15.98;;;11.27;;
60344;SDS011;46188;52.324;8.032;2022-12-20T17:13:08;25.92;;;19.38;;
60344;SDS011;46188;52.324;8.032;2022-12-20T17:15:38;19.98;;;14.40;;
60344;SDS011;46188;52.324;8.032;2022-12-20T17:18:04;24.52;;;17.17;;
60344;SDS011;46188;52.324;8.032;2022-12-20T17:20:30;18.08;;;13.05;;
60344;SDS011;46188;52.324;8.032;2022-12-20T17:22:55;15.50;;;10.77;;
60344;SDS011;46188;52.324;8.032;2022-12-20T17:25:22;15.90;;;10.57;;